Time;durP1;ratioP1;P1;durP2;ratioP2;P2;SDS_P1;SDS_P2;PMS_P1;PMS_P2;Temp;Humidity;BMP_temperature;BMP_pressure;BME280_temperature;BME280_humidity;BME280_pressure;Samples;Min_cycle;Max_cycle;Signal;HPM_P1;HPM_P2
2021/05/06 00:14:22;;;;;;;5.13;3.83;;;5.40;89.60;;;;;;5050971;28;20483;-77
2021/05/06 00:30:19;;;;;;;6.82;3.67;;;5.40;90.00;;;;;;5050436;28;20031;-77
2021/05/06 00:32:54;;;;;;;8.70;5.07;;;5.30;90.20;;;;;;5035156;28;20028;-77
2021/05/06 00:35:19;;;;;;;4.75;4.00;;;5.40;90.30;;;;;;5008947;28;20484;-77
2021/05/06 00:38:01;;;;;;;9.13;4.43;;;5.30;90.50;;;;;;5033757;28;20124;-77
2021/05/06 00:59:28;;;;;;;10.77;4.88;;;5.40;90.70;;;;;;5027811;28;20025;-78
2021/05/06 01:04:41;;;;;;;8.75;5.20;;;5.30;90.60;;;;;;5044755;28;20033;-78
2021/05/06 01:10:31;;;;;;;6.25;4.05;;;5.10;90.80;;;;;;5043784;28;20102;-77
2021/05/06 01:12:21;;;;;;;8.55;5.80;;;5.10;90.80;;;;;;5019643;28;20083;-77
2021/05/06 01:14:46;;;;;;;9.05;5.40;;;5.20;90.80;;;;;;5017867;28;20384;-78
2021/05/06 01:17:12;;;;;;;7.57;5.13;;;5.10;90.90;;;;;;5014282;28;20430;-77
2021/05/06 01:19:37;;;;;;;11.60;6.20;;;5.10;90.90;;;;;;5030933;28;20491;-78
2021/05/06 01:22:04;;;;;;;12.23;6.22;;;5.10;90.90;;;;;;5011580;28;20502;-77
2021/05/06 01:24:29;;;;;;;9.05;5.10;;;5.10;90.80;;;;;;5008214;28;20140;-77
2021/05/06 01:27:04;;;;;;;9.95;6.38;;;5.20;90.60;;;;;;5031306;28;20149;-77
2021/05/06 01:29:33;;;;;;;14.15;7.30;;;5.20;90.60;;;;;;5031443;28;20071;-77
2021/05/06 01:34:46;;;;;;;7.38;5.10;;;5.10;90.80;;;;;;5034442;28;20625;-77
2021/05/06 01:37:19;;;;;;;7.88;4.35;;;5.10;90.60;;;;;;5018653;28;20040;-77
2021/05/06 01:42:41;;;;;;;8.73;5.50;;;5.10;90.70;;;;;;5039565;28;20051;-77
2021/05/06 01:50:27;;;;;;;7.38;5.10;;;5.00;91.00;;;;;;5024324;28;20033;-77
2021/05/06 02:00:57;;;;;;;8.25;6.28;;;5.10;90.80;;;;;;5034828;28;20491;-78
2021/05/06 02:03:23;;;;;;;8.20;5.93;;;5.10;90.80;;;;;;5028642;28;20266;-78
2021/05/06 02:05:49;;;;;;;4.30;3.50;;;5.10;90.80;;;;;;5049104;28;20482;-77
2021/05/06 02:08:14;;;;;;;10.32;6.03;;;5.00;90.90;;;;;;5011834;28;20040;-78
2021/05/06 02:10:40;;;;;;;8.10;5.38;;;5.10;91.00;;;;;;5043644;28;20067;-78
2021/05/06 02:13:06;;;;;;;12.10;4.53;;;5.10;90.90;;;;;;5010222;28;20033;-77
2021/05/06 02:15:43;;;;;;;9.38;6.57;;;5.10;91.00;;;;;;5033314;28;20090;-77
2021/05/06 02:18:09;;;;;;;5.70;4.10;;;5.10;91.10;;;;;;5010441;28;20117;-77
2021/05/06 02:20:34;;;;;;;8.05;6.55;;;5.10;91.30;;;;;;5003345;28;20667;-77
2021/05/06 02:23:03;;;;;;;5.15;2.90;;;5.10;91.40;;;;;;5013500;28;20063;-77
2021/05/06 02:25:29;;;;;;;8.65;6.18;;;5.10;91.50;;;;;;5012491;28;20033;-77
2021/05/06 02:27:54;;;;;;;6.40;4.20;;;5.10;91.40;;;;;;5024223;28;20098;-77
2021/05/06 02:30:20;;;;;;;3.17;2.58;;;5.20;91.40;;;;;;5025741;28;20033;-78
2021/05/06 02:32:45;;;;;;;7.10;4.40;;;5.20;91.50;;;;;;5017123;28;20033;-78
2021/05/06 02:35:11;;;;;;;6.53;4.13;;;5.20;91.60;;;;;;5044578;28;20037;-78
2021/05/06 02:37:37;;;;;;;8.75;4.88;;;5.20;91.60;;;;;;5034849;28;20107;-77
2021/05/06 02:40:04;;;;;;;4.30;3.63;;;5.20;91.70;;;;;;5026552;28;20033;-77
2021/05/06 02:42:30;;;;;;;6.80;4.68;;;5.20;91.80;;;;;;5009787;28;20060;-78
2021/05/06 02:44:55;;;;;;;10.18;7.22;;;5.30;91.50;;;;;;5048233;28;20063;-78
2021/05/06 02:47:21;;;;;;;11.35;5.90;;;5.30;91.60;;;;;;5016319;28;20032;-77
2021/05/06 02:49:48;;;;;;;4.78;3.70;;;5.30;91.60;;;;;;5018960;28;20340;-77
2021/05/06 02:52:30;;;;;;;7.55;4.85;;;5.30;91.70;;;;;;5053764;28;20102;-77
2021/05/06 02:55:10;;;;;;;11.43;6.88;;;5.30;91.80;;;;;;5025345;28;20127;-77
2021/05/06 03:03:04;;;;;;;6.55;3.30;;;5.30;92.20;;;;;;5038782;28;20134;-77
2021/05/06 03:05:32;;;;;;;4.40;2.85;;;5.30;92.10;;;;;;5013411;28;20030;-77
2021/05/06 03:08:20;;;;;;;4.05;3.60;;;5.30;92.10;;;;;;5034873;28;20040;-77
2021/05/06 03:11:04;;;;;;;8.00;4.53;;;5.40;92.00;;;;;;5034178;28;20037;-77
2021/05/06 03:23:53;;;;;;;5.32;2.58;;;5.30;92.50;;;;;;5051885;28;20041;-76
2021/05/06 03:26:18;;;;;;;6.72;2.63;;;5.40;92.40;;;;;;5019629;28;20570;-76
2021/05/06 03:28:52;;;;;;;4.97;2.58;;;5.40;92.30;;;;;;5013312;28;20124;-76
2021/05/06 03:42:23;;;;;;;3.80;3.33;;;5.40;92.60;;;;;;5048685;28;20043;-76
2021/05/06 03:45:46;;;;;;;6.57;2.50;;;5.30;92.90;;;;;;5023478;28;20122;-76
2021/05/06 04:22:22;;;;;;;4.10;2.30;;;5.10;92.80;;;;;;5030928;28;20036;-77
2021/05/06 04:37:44;;;;;;;2.75;1.58;;;5.30;92.90;;;;;;5033060;28;20025;-77
2021/05/06 04:55:53;;;;;;;2.40;1.85;;;5.40;92.90;;;;;;5030892;28;20504;-77
2021/05/06 05:03:58;;;;;;;5.68;2.08;;;5.50;93.20;;;;;;5038738;28;20327;-77
2021/05/06 05:06:28;;;;;;;4.03;2.33;;;5.50;93.10;;;;;;5014543;28;20396;-78
2021/05/06 05:09:55;;;;;;;6.78;2.15;;;5.60;93.30;;;;;;5031776;28;20438;-78
2021/05/06 05:14:30;;;;;;;7.53;2.88;;;5.60;93.10;;;;;;5028471;28;20028;-77
2021/05/06 05:25:03;;;;;;;2.45;1.70;;;5.80;93.10;;;;;;5029464;28;20039;-77
2021/05/06 05:27:28;;;;;;;5.80;3.40;;;5.80;92.90;;;;;;5019589;28;20032;-78
2021/05/06 05:29:54;;;;;;;2.90;2.05;;;5.80;93.00;;;;;;5029146;28;20035;-78
2021/05/06 05:32:26;;;;;;;8.43;4.85;;;5.90;92.90;;;;;;5009380;28;20376;-77
2021/05/06 05:37:20;;;;;;;6.72;2.17;;;5.90;92.80;;;;;;5009884;28;20054;-78
2021/05/06 05:45:24;;;;;;;10.07;6.20;;;6.00;92.80;;;;;;5014880;28;20026;-77
2021/05/06 05:55:49;;;;;;;4.90;2.67;;;6.10;92.50;;;;;;5009750;28;20029;-77
2021/05/06 05:58:15;;;;;;;8.55;5.93;;;6.10;92.80;;;;;;5001350;28;20026;-77
2021/05/06 06:00:40;;;;;;;5.50;3.92;;;6.10;92.80;;;;;;5006766;28;20022;-77
2021/05/06 06:03:06;;;;;;;10.65;7.20;;;6.20;92.60;;;;;;4993870;28;20125;-77
2021/05/06 06:05:31;;;;;;;8.23;3.75;;;6.20;92.70;;;;;;5008305;28;20042;-77
2021/05/06 06:07:57;;;;;;;6.03;4.15;;;6.20;92.60;;;;;;4976333;28;20105;-77
2021/05/06 06:10:22;;;;;;;12.75;6.80;;;6.30;92.50;;;;;;5008614;28;20462;-77
2021/05/06 06:12:48;;;;;;;11.63;7.82;;;6.30;92.70;;;;;;4979091;28;20025;-77
2021/05/06 06:15:48;;;;;;;14.75;6.40;;;6.30;92.70;;;;;;4980579;28;20096;-77
2021/05/06 06:18:14;;;;;;;11.82;6.97;;;6.40;92.60;;;;;;5011147;28;20034;-77
2021/05/06 06:20:42;;;;;;;12.48;9.02;;;6.40;92.60;;;;;;4991616;28;20450;-76
2021/05/06 06:23:08;;;;;;;4.53;2.97;;;6.40;92.80;;;;;;4988427;28;20030;-77
2021/05/06 06:25:33;;;;;;;9.73;6.72;;;6.50;92.40;;;;;;4993228;28;20388;-77
2021/05/06 06:27:59;;;;;;;13.88;9.70;;;6.50;92.40;;;;;;4991750;28;20045;-77
2021/05/06 06:30:25;;;;;;;11.38;7.95;;;6.50;92.60;;;;;;4992535;28;20038;-77
2021/05/06 06:32:53;;;;;;;5.90;4.00;;;6.50;92.30;;;;;;4977531;28;20081;-77
2021/05/06 06:35:18;;;;;;;12.43;9.85;;;6.60;92.00;;;;;;4992435;28;20021;-77
2021/05/06 06:37:44;;;;;;;11.23;8.68;;;6.70;92.20;;;;;;4992263;28;20032;-77
2021/05/06 06:40:10;;;;;;;18.38;9.13;;;6.60;92.20;;;;;;4990134;28;20034;-77
2021/05/06 06:42:36;;;;;;;12.70;9.73;;;6.70;92.20;;;;;;5001818;28;20048;-77
2021/05/06 06:45:01;;;;;;;15.68;10.10;;;6.80;92.50;;;;;;4980835;28;20034;-77
2021/05/06 06:47:27;;;;;;;14.52;10.38;;;7.00;92.40;;;;;;4966874;28;20026;-77
2021/05/06 06:49:52;;;;;;;10.27;7.70;;;7.10;92.70;;;;;;4988668;28;20073;-77
2021/05/06 06:52:18;;;;;;;13.32;8.85;;;7.20;91.90;;;;;;4980532;28;20053;-77
2021/05/06 06:54:43;;;;;;;17.48;8.80;;;7.20;91.80;;;;;;4999351;28;20075;-78
2021/05/06 06:57:09;;;;;;;10.75;8.60;;;7.30;91.70;;;;;;4972214;28;20384;-78
2021/05/06 06:59:35;;;;;;;13.95;5.93;;;7.40;91.70;;;;;;4961255;28;20030;-76
2021/05/06 07:02:00;;;;;;;11.88;8.68;;;7.30;91.50;;;;;;4989480;28;20042;-77
2021/05/06 07:04:28;;;;;;;15.43;11.45;;;7.30;91.90;;;;;;4994711;28;20367;-77
2021/05/06 07:06:53;;;;;;;16.33;11.75;;;7.50;93.10;;;;;;4948610;28;20050;-76
2021/05/06 07:09:19;;;;;;;8.90;6.80;;;7.70;93.10;;;;;;4970353;28;20092;-77
2021/05/06 07:11:45;;;;;;;14.27;10.70;;;7.70;91.10;;;;;;4992384;28;20117;-77
2021/05/06 07:14:10;;;;;;;14.20;9.32;;;7.70;92.50;;;;;;4978912;28;20038;-77
2021/05/06 07:16:36;;;;;;;10.98;9.18;;;7.70;91.50;;;;;;4979732;28;20204;-77
2021/05/06 07:19:02;;;;;;;17.38;12.60;;;7.80;91.70;;;;;;4996665;28;20038;-77
2021/05/06 07:21:27;;;;;;;31.88;9.40;;;7.80;91.90;;;;;;4974084;28;20080;-77
2021/05/06 07:23:56;;;;;;;14.45;10.40;;;8.00;91.50;;;;;;4998142;28;20042;-77
2021/05/06 07:26:23;;;;;;;15.82;12.07;;;8.10;91.50;;;;;;4994103;28;20033;-77
2021/05/06 07:28:52;;;;;;;12.13;9.70;;;8.50;92.90;;;;;;4991095;28;20053;-77
2021/05/06 07:31:18;;;;;;;11.20;8.63;;;8.60;90.70;;;;;;4978151;28;20037;-77
2021/05/06 07:33:46;;;;;;;9.13;5.22;;;8.90;92.60;;;;;;4971667;28;20447;-78
2021/05/06 07:36:12;;;;;;;13.23;10.05;;;9.10;90.90;;;;;;4982225;28;20037;-77
2021/05/06 07:38:37;;;;;;;13.57;7.65;;;9.00;92.40;;;;;;4993105;28;20034;-77
2021/05/06 07:41:03;;;;;;;11.10;8.95;;;9.00;90.90;;;;;;4993947;28;20027;-77
2021/05/06 07:43:30;;;;;;;15.07;10.32;;;9.10;91.40;;;;;;4989525;28;20449;-77
2021/05/06 07:45:55;;;;;;;11.00;7.53;;;9.00;91.50;;;;;;4969540;28;20030;-77
2021/05/06 07:48:21;;;;;;;13.23;8.95;;;9.10;90.90;;;;;;4993779;28;20037;-77
2021/05/06 07:50:49;;;;;;;13.07;11.25;;;9.00;91.00;;;;;;4981326;28;20093;-77
2021/05/06 07:53:20;;;;;;;9.70;8.07;;;9.20;91.90;;;;;;4976928;28;20045;-77
2021/05/06 07:55:45;;;;;;;14.38;11.77;;;9.00;90.00;;;;;;4968279;28;20104;-77
2021/05/06 07:58:11;;;;;;;13.27;11.88;;;9.20;92.50;;;;;;4999332;28;20042;-77
2021/05/06 08:00:36;;;;;;;14.57;10.57;;;9.40;92.40;;;;;;4978846;28;20030;-77
2021/05/06 08:03:04;;;;;;;15.35;12.02;;;9.60;90.60;;;;;;4966731;28;20103;-77
2021/05/06 08:05:29;;;;;;;10.65;8.68;;;9.60;90.90;;;;;;4980932;28;20038;-77
2021/05/06 08:07:55;;;;;;;13.82;11.10;;;10.00;90.40;;;;;;4982583;28;20027;-77
2021/05/06 08:10:23;;;;;;;12.85;10.95;;;9.80;89.30;;;;;;4982381;28;20034;-77
2021/05/06 08:12:48;;;;;;;16.08;12.68;;;10.10;90.50;;;;;;4979475;28;20075;-77
2021/05/06 08:15:14;;;;;;;16.23;12.45;;;10.60;92.00;;;;;;4975282;28;20443;-77
2021/05/06 08:17:40;;;;;;;13.05;9.60;;;11.10;93.20;;;;;;4962167;28;20080;-77
2021/05/06 08:20:08;;;;;;;12.75;8.82;;;11.00;87.90;;;;;;4981036;28;20234;-77
2021/05/06 08:22:34;;;;;;;14.13;11.20;;;10.70;86.80;;;;;;4966319;28;20057;-77
2021/05/06 08:24:59;;;;;;;12.05;8.10;;;11.10;89.40;;;;;;4978275;28;20057;-77
2021/05/06 08:27:25;;;;;;;18.10;12.85;;;10.60;84.30;;;;;;4975972;28;20023;-77
2021/05/06 08:29:50;;;;;;;12.38;7.55;;;10.90;91.80;;;;;;4976458;28;20107;-77
2021/05/06 08:32:16;;;;;;;19.23;11.18;;;11.30;86.30;;;;;;4977232;28;20072;-77
2021/05/06 08:34:41;;;;;;;18.85;14.30;;;11.20;85.20;;;;;;4987819;28;20034;-77
2021/05/06 08:37:07;;;;;;;13.80;9.52;;;11.40;89.10;;;;;;4994439;28;20037;-77
2021/05/06 08:39:32;;;;;;;7.43;5.07;;;11.40;84.40;;;;;;4991193;28;20034;-77
2021/05/06 08:41:59;;;;;;;12.63;9.25;;;11.40;84.70;;;;;;4964904;28;20076;-77
2021/05/06 08:44:29;;;;;;;12.13;9.07;;;11.50;82.50;;;;;;4976683;28;20037;-77
2021/05/06 08:47:12;;;;;;;12.80;9.10;;;11.40;82.80;;;;;;4994137;28;20038;-77
2021/05/06 08:49:38;;;;;;;11.50;8.55;;;11.80;82.60;;;;;;4983903;28;20053;-77
2021/05/06 08:52:05;;;;;;;11.10;9.38;;;11.50;80.30;;;;;;4969439;28;20045;-77
2021/05/06 08:54:30;;;;;;;12.70;9.95;;;11.70;79.60;;;;;;4998420;28;20463;-77
2021/05/06 08:56:56;;;;;;;9.88;7.63;;;12.00;86.40;;;;;;4986851;28;20121;-77
2021/05/06 08:59:22;;;;;;;10.50;8.32;;;11.70;79.30;;;;;;4976801;28;20038;-77
2021/05/06 09:01:48;;;;;;;8.32;6.57;;;11.60;79.90;;;;;;4991577;28;20037;-77
2021/05/06 09:04:14;;;;;;;8.43;7.18;;;12.10;81.20;;;;;;4973221;28;20034;-77
2021/05/06 09:06:59;;;;;;;6.88;6.18;;;12.60;82.40;;;;;;4976341;28;20030;-77
2021/05/06 09:09:25;;;;;;;7.00;3.85;;;12.50;80.40;;;;;;4973165;28;20026;-77
2021/05/06 09:11:55;;;;;;;7.53;6.55;;;13.00;79.30;;;;;;4962834;28;20204;-77
2021/05/06 09:14:46;;;;;;;8.40;6.20;;;12.70;79.00;;;;;;5005920;28;20042;-77
2021/05/06 09:17:32;;;;;;;8.52;5.88;;;13.00;78.70;;;;;;4989737;28;20049;-77
2021/05/06 09:20:16;;;;;;;6.25;5.35;;;13.30;74.30;;;;;;4982169;28;20037;-77
2021/05/06 09:22:46;;;;;;;6.88;4.90;;;13.30;74.40;;;;;;4991371;28;20417;-77
2021/05/06 09:25:25;;;;;;;7.15;4.65;;;13.10;74.50;;;;;;4961398;28;20027;-77
2021/05/06 09:28:14;;;;;;;5.25;4.05;;;13.20;76.40;;;;;;4990114;28;20034;-77
2021/05/06 09:30:55;;;;;;;10.05;7.40;;;13.10;77.20;;;;;;4983071;28;20046;-77
2021/05/06 09:33:39;;;;;;;6.30;5.68;;;13.50;83.80;;;;;;4984077;28;20114;-77
2021/05/06 09:36:25;;;;;;;7.03;6.30;;;13.40;82.20;;;;;;4998535;28;20034;-77
2021/05/06 09:38:51;;;;;;;;;;;13.50;85.10;;;;;;4984556;28;20125;-77
2021/05/06 09:41:23;;;;;;;6.77;6.10;;;13.60;87.00;;;;;;4993990;28;20035;-77
2021/05/06 09:43:48;;;;;;;5.97;5.38;;;13.80;84.60;;;;;;5001437;28;20457;-77
2021/05/06 09:46:39;;;;;;;6.43;4.63;;;13.50;83.90;;;;;;4981988;28;20045;-77
2021/05/06 09:49:05;;;;;;;7.97;5.78;;;14.10;87.50;;;;;;4991002;28;20859;-77
2021/05/06 09:51:43;;;;;;;7.00;5.00;;;14.40;86.40;;;;;;4978916;28;20084;-77
2021/05/06 09:54:20;;;;;;;6.15;4.65;;;14.50;85.60;;;;;;4990609;28;20031;-77
2021/05/06 09:56:47;;;;;;;5.63;3.83;;;14.30;77.50;;;;;;4982442;28;20054;-77
2021/05/06 09:59:21;;;;;;;4.43;4.03;;;14.20;80.60;;;;;;4993774;28;20282;-77
2021/05/06 10:01:47;;;;;;;4.18;3.83;;;14.50;78.60;;;;;;4992779;28;20432;-77
2021/05/06 10:04:14;;;;;;;4.25;3.55;;;14.70;78.00;;;;;;4988818;28;20043;-77
2021/05/06 10:06:40;;;;;;;4.78;3.85;;;15.20;75.40;;;;;;4989711;28;20022;-78
2021/05/06 10:09:06;;;;;;;3.40;3.10;;;15.30;72.00;;;;;;4962884;28;20473;-77
2021/05/06 10:11:31;;;;;;;4.05;3.20;;;15.50;73.50;;;;;;4965727;28;20326;-77
2021/05/06 10:13:58;;;;;;;5.38;3.35;;;15.40;76.70;;;;;;4974502;28;20025;-77
2021/05/06 10:16:23;;;;;;;4.55;3.60;;;15.40;74.00;;;;;;4992008;28;20393;-77
2021/05/06 10:18:49;;;;;;;3.65;3.33;;;15.30;73.20;;;;;;4979548;28;20038;-77
2021/05/06 10:21:16;;;;;;;3.70;3.38;;;15.40;70.00;;;;;;4978671;28;20114;-77
2021/05/06 10:23:45;;;;;;;3.53;3.20;;;15.60;73.90;;;;;;4972635;28;20037;-77
2021/05/06 10:26:11;;;;;;;5.50;3.38;;;15.70;74.70;;;;;;4986500;28;20140;-77
2021/05/06 10:28:36;;;;;;;4.47;3.53;;;16.00;78.40;;;;;;4994079;28;20113;-78
2021/05/06 10:31:03;;;;;;;3.17;2.45;;;16.20;74.00;;;;;;4992556;28;20048;-78
2021/05/06 10:33:29;;;;;;;6.07;3.45;;;16.30;72.90;;;;;;4993344;28;20034;-78
2021/05/06 10:35:56;;;;;;;3.70;3.00;;;16.60;71.20;;;;;;4986651;28;20030;-78
2021/05/06 10:38:21;;;;;;;4.18;2.92;;;16.90;67.80;;;;;;4994580;28;20045;-78
2021/05/06 10:40:47;;;;;;;4.80;3.03;;;17.40;69.10;;;;;;4996190;28;20049;-78
2021/05/06 10:43:23;;;;;;;4.03;2.88;;;17.40;70.40;;;;;;4960940;28;20042;-78
2021/05/06 10:46:02;;;;;;;3.97;2.92;;;17.50;67.20;;;;;;4978558;28;20139;-78
2021/05/06 10:48:55;;;;;;;4.28;2.05;;;17.50;66.60;;;;;;4986038;28;20076;-78
2021/05/06 10:51:27;;;;;;;4.43;2.85;;;17.80;65.60;;;;;;4662522;28;10000417;-78
2021/05/06 10:53:53;;;;;;;2.92;2.63;;;18.10;63.00;;;;;;4645305;28;9999805;-78
2021/05/06 10:56:18;;;;;;;4.15;2.25;;;18.60;67.60;;;;;;4971468;28;20030;-79
2021/05/06 10:58:44;;;;;;;2.97;2.20;;;17.90;59.40;;;;;;4977854;28;20030;-79
2021/05/06 11:01:12;;;;;;;3.40;2.53;;;18.50;66.20;;;;;;5000412;28;20034;-79
2021/05/06 11:03:38;;;;;;;3.10;2.70;;;19.00;66.00;;;;;;4998693;28;20049;-78
2021/05/06 11:06:04;;;;;;;4.18;2.72;;;19.30;69.40;;;;;;4967821;28;20030;-79
2021/05/06 11:08:31;;;;;;;2.58;2.15;;;19.70;59.10;;;;;;4968723;28;20611;-79
2021/05/06 11:10:56;;;;;;;3.50;2.17;;;19.70;58.10;;;;;;4969336;28;20034;-79
2021/05/06 11:13:23;;;;;;;2.78;1.60;;;20.30;59.40;;;;;;4996401;28;20060;-79
2021/05/06 11:15:49;;;;;;;3.45;2.35;;;19.90;56.80;;;;;;4969900;28;20038;-79
2021/05/06 11:18:43;;;;;;;3.58;1.83;;;20.00;57.40;;;;;;4962692;28;20433;-79
2021/05/06 11:21:10;;;;;;;3.30;1.88;;;20.80;58.10;;;;;;4990898;28;20035;-79
2021/05/06 11:23:36;;;;;;;7.90;2.53;;;20.80;53.00;;;;;;4967227;28;20066;-78
2021/05/06 11:26:09;;;;;;;3.20;2.00;;;21.10;64.10;;;;;;4990996;28;20382;-78
2021/05/06 11:28:34;;;;;;;5.47;2.40;;;21.20;64.80;;;;;;4995357;28;20409;-79
2021/05/06 11:31:00;;;;;;;3.17;2.88;;;21.00;62.70;;;;;;5003233;28;20041;-79
2021/05/06 11:33:28;;;;;;;2.58;1.60;;;21.10;60.80;;;;;;4976044;28;20410;-77
2021/05/06 11:36:13;;;;;;;3.33;2.10;;;21.00;60.50;;;;;;4994008;28;20110;-77
2021/05/06 11:38:39;;;;;;;1.55;1.42;;;21.30;60.80;;;;;;5000657;28;20119;-77
2021/05/06 11:41:05;;;;;;;2.80;1.65;;;21.30;58.30;;;;;;4993369;28;20497;-77
2021/05/06 11:43:32;;;;;;;2.50;1.83;;;21.30;57.20;;;;;;4990119;28;20038;-77
2021/05/06 11:46:06;;;;;;;2.63;1.50;;;21.10;57.30;;;;;;4978210;28;20363;-77
2021/05/06 11:48:39;;;;;;;1.77;1.30;;;21.80;58.30;;;;;;4991129;28;20042;-77
2021/05/06 11:51:05;;;;;;;3.20;1.50;;;22.00;58.00;;;;;;4994467;28;20038;-77
2021/05/06 11:53:31;;;;;;;1.08;0.90;;;21.60;55.70;;;;;;4989608;28;20444;-77
2021/05/06 11:55:56;;;;;;;3.47;1.27;;;21.20;45.70;;;;;;4970052;28;20038;-77
2021/05/06 11:58:26;;;;;;;2.00;1.15;;;20.20;47.60;;;;;;4999246;28;20034;-78
2021/05/06 12:00:52;;;;;;;2.08;0.88;;;20.60;52.40;;;;;;4982871;28;20027;-77
2021/05/06 12:03:35;;;;;;;2.13;1.30;;;20.70;48.80;;;;;;4967907;28;20409;-80
2021/05/06 12:06:01;;;;;;;2.03;1.00;;;21.10;55.40;;;;;;4976721;28;20069;-78
2021/05/06 12:08:29;;;;;;;1.50;1.10;;;21.00;51.50;;;;;;4971600;28;20510;-79
2021/05/06 12:10:56;;;;;;;3.20;1.92;;;20.60;45.80;;;;;;4971950;28;20299;-80
2021/05/06 12:13:28;;;;;;;2.88;1.40;;;21.20;52.70;;;;;;4978017;28;20037;-80
2021/05/06 12:16:27;;;;;;;2.75;1.83;;;21.80;51.80;;;;;;4971318;28;20089;-79
2021/05/06 12:19:06;;;;;;;1.95;1.50;;;22.20;51.60;;;;;;4974445;28;20504;-79
2021/05/06 12:22:02;;;;;;;2.40;1.02;;;21.70;53.10;;;;;;4980467;28;20068;-80
2021/05/06 12:24:32;;;;;;;3.75;1.13;;;21.10;45.80;;;;;;4970822;28;20019;-79
2021/05/06 12:27:14;;;;;;;3.13;1.20;;;20.80;43.30;;;;;;4985436;28;20042;-80
2021/05/06 12:29:40;;;;;;;1.50;0.63;;;21.10;46.20;;;;;;4963614;28;20513;-79
2021/05/06 12:32:34;;;;;;;2.88;0.90;;;20.30;44.00;;;;;;4976211;28;20037;-79
2021/05/06 12:35:03;;;;;;;2.75;1.58;;;20.00;44.00;;;;;;4984975;28;20034;-81
2021/05/06 12:37:32;;;;;;;2.88;1.00;;;20.40;43.40;;;;;;4963087;28;20042;-80
2021/05/06 12:40:21;;;;;;;1.17;1.08;;;20.50;45.60;;;;;;4980035;28;20973;-80
2021/05/06 12:42:47;;;;;;;2.35;1.30;;;20.00;45.60;;;;;;4995188;28;20046;-79
2021/05/06 12:45:13;;;;;;;1.38;1.23;;;20.40;43.70;;;;;;4979434;28;20199;-79
2021/05/06 12:47:45;;;;;;;1.33;1.10;;;19.60;43.30;;;;;;4986595;28;21343;-79
2021/05/06 12:50:16;;;;;;;1.42;1.08;;;20.00;48.40;;;;;;4982343;28;20037;-80
2021/05/06 12:52:42;;;;;;;4.80;1.70;;;20.40;45.00;;;;;;4978632;28;20477;-80
2021/05/06 12:55:31;;;;;;;2.05;1.70;;;20.80;50.40;;;;;;4979970;28;20027;-79
2021/05/06 12:58:06;;;;;;;3.33;1.60;;;21.80;49.90;;;;;;4978566;28;20292;-79
2021/05/06 13:00:33;;;;;;;2.60;1.40;;;22.20;50.50;;;;;;4972277;28;20068;-79
2021/05/06 13:03:06;;;;;;;1.23;1.13;;;21.50;44.20;;;;;;4986498;28;20029;-80
2021/05/06 13:05:33;;;;;;;2.42;1.30;;;21.80;44.80;;;;;;4995147;28;20085;-81
2021/05/06 13:07:59;;;;;;;1.50;0.98;;;21.90;49.40;;;;;;4980078;28;20034;-80
2021/05/06 13:10:33;;;;;;;2.25;1.48;;;21.90;44.80;;;;;;4991487;28;20538;-79
2021/05/06 13:13:02;;;;;;;2.55;1.42;;;22.30;46.70;;;;;;4980928;28;20027;-80
2021/05/06 13:15:29;;;;;;;1.55;1.30;;;22.40;45.20;;;;;;4972185;28;20458;-81
2021/05/06 13:17:56;;;;;;;1.25;0.90;;;22.20;47.70;;;;;;4983059;28;20022;-80
2021/05/06 13:20:23;;;;;;;2.55;1.02;;;22.10;43.70;;;;;;4976568;28;20045;-80
2021/05/06 13:22:59;;;;;;;3.40;1.48;;;22.30;43.70;;;;;;4978666;28;20105;-80
2021/05/06 13:25:43;;;;;;;1.83;1.10;;;22.50;45.00;;;;;;4991280;28;20634;-81
2021/05/06 13:28:10;;;;;;;1.55;1.00;;;22.30;43.50;;;;;;4982003;28;20407;-81
2021/05/06 13:30:36;;;;;;;3.22;1.55;;;22.20;46.70;;;;;;4980071;28;20042;-81
2021/05/06 13:33:16;;;;;;;3.25;1.60;;;22.10;44.20;;;;;;4978205;28;20035;-82
2021/05/06 13:35:42;;;;;;;2.70;1.38;;;21.90;45.60;;;;;;4992124;28;20037;-82
2021/05/06 13:38:07;;;;;;;2.65;1.27;;;22.10;44.80;;;;;;4965379;28;20026;-83
2021/05/06 13:40:33;;;;;;;2.53;1.50;;;22.80;47.20;;;;;;4991051;28;20030;-82
2021/05/06 13:42:58;;;;;;;1.88;1.23;;;22.80;44.30;;;;;;4993491;28;20022;-82
2021/05/06 13:45:24;;;;;;;5.78;1.60;;;22.50;45.30;;;;;;4964622;28;20037;-83
2021/05/06 13:47:50;;;;;;;1.92;1.40;;;22.20;45.70;;;;;;4987839;28;20032;-83
2021/05/06 13:50:16;;;;;;;2.55;1.20;;;22.40;46.90;;;;;;4993505;28;20034;-83
2021/05/06 13:52:42;;;;;;;2.00;1.25;;;22.50;45.30;;;;;;4976947;28;20038;-82
2021/05/06 13:55:09;;;;;;;1.77;1.50;;;23.00;44.00;;;;;;4979333;28;20486;-83
2021/05/06 13:57:34;;;;;;;2.58;1.25;;;23.20;43.50;;;;;;4982160;28;20034;-83
2021/05/06 14:00:00;;;;;;;3.05;1.10;;;23.30;42.70;;;;;;4982278;28;20100;-82
2021/05/06 14:02:28;;;;;;;2.35;1.40;;;23.30;44.30;;;;;;4982828;28;20042;-83
2021/05/06 14:04:54;;;;;;;1.80;1.42;;;23.30;42.60;;;;;;4988504;28;20088;-80
2021/05/06 14:07:19;;;;;;;1.67;1.25;;;23.50;41.80;;;;;;4979163;28;20038;-80
2021/05/06 14:09:45;;;;;;;3.25;2.03;;;23.30;43.90;;;;;;4998360;28;20041;-82
2021/05/06 14:12:11;;;;;;;1.92;1.05;;;23.30;44.30;;;;;;4992563;28;20052;-82
2021/05/06 14:14:36;;;;;;;2.40;1.20;;;22.70;43.20;;;;;;4986308;28;20130;-82
2021/05/06 14:17:02;;;;;;;2.70;1.30;;;22.30;44.60;;;;;;4982197;28;20033;-82
2021/05/06 14:19:27;;;;;;;4.32;1.90;;;22.20;42.80;;;;;;4978699;28;20440;-82
2021/05/06 14:21:55;;;;;;;3.42;1.65;;;22.20;43.10;;;;;;4988697;28;20073;-80
2021/05/06 14:24:20;;;;;;;2.25;1.50;;;22.60;42.10;;;;;;4986094;28;20125;-82
2021/05/06 14:26:48;;;;;;;2.55;1.30;;;22.60;42.30;;;;;;4987299;28;20121;-81
2021/05/06 14:29:15;;;;;;;5.47;1.50;;;22.60;42.90;;;;;;4982005;28;20033;-82
2021/05/06 14:31:41;;;;;;;1.48;1.23;;;22.70;41.70;;;;;;4981834;28;20243;-80
2021/05/06 14:34:06;;;;;;;2.15;1.45;;;22.60;43.40;;;;;;4967919;28;20037;-80
2021/05/06 14:36:32;;;;;;;3.45;1.50;;;21.90;42.10;;;;;;4997262;28;20030;-80
2021/05/06 14:39:02;;;;;;;2.25;1.30;;;21.90;45.10;;;;;;4968957;28;20496;-80
2021/05/06 14:41:27;;;;;;;2.97;1.33;;;21.80;42.30;;;;;;4985398;28;20435;-80
2021/05/06 14:43:53;;;;;;;3.45;1.10;;;21.20;41.20;;;;;;4981624;28;20152;-80
2021/05/06 14:46:21;;;;;;;2.10;1.13;;;21.40;45.00;;;;;;4985531;28;20038;-80
2021/05/06 14:48:46;;;;;;;3.75;2.00;;;21.90;45.80;;;;;;4998300;28;20489;-80
2021/05/06 14:51:12;;;;;;;1.17;0.95;;;22.30;43.90;;;;;;4978895;28;20061;-80
2021/05/06 14:53:37;;;;;;;1.67;1.23;;;22.60;42.90;;;;;;4996521;28;20089;-80
2021/05/06 14:56:03;;;;;;;1.90;1.40;;;22.50;42.00;;;;;;4982523;28;20034;-80
2021/05/06 14:58:30;;;;;;;1.63;1.48;;;22.70;43.50;;;;;;4995986;28;20117;-83
2021/05/06 15:00:56;;;;;;;2.30;1.63;;;22.50;43.00;;;;;;4989409;28;20050;-80
2021/05/06 15:03:22;;;;;;;3.65;2.08;;;22.60;42.60;;;;;;4967773;28;20038;-80
2021/05/06 15:05:48;;;;;;;1.60;1.40;;;22.50;42.60;;;;;;4994554;28;20416;-80
2021/05/06 15:08:13;;;;;;;3.25;1.40;;;22.60;41.70;;;;;;4979910;28;20151;-80
2021/05/06 15:10:39;;;;;;;1.85;1.38;;;22.40;42.30;;;;;;4983814;28;20025;-81
2021/05/06 15:13:04;;;;;;;3.47;1.17;;;22.50;42.80;;;;;;4991955;28;20026;-80
2021/05/06 15:15:30;;;;;;;5.15;1.60;;;21.90;42.00;;;;;;4997831;28;20057;-80
2021/05/06 15:17:56;;;;;;;4.43;1.40;;;21.90;44.70;;;;;;4987097;28;20022;-80
2021/05/06 15:20:22;;;;;;;1.75;1.65;;;21.60;44.70;;;;;;4983839;28;20034;-81
2021/05/06 15:22:48;;;;;;;2.50;1.33;;;21.80;43.50;;;;;;4997479;28;20375;-80
2021/05/06 15:25:13;;;;;;;1.30;1.20;;;21.70;42.90;;;;;;4977357;28;20440;-81
2021/05/06 15:27:42;;;;;;;2.80;1.35;;;21.30;41.80;;;;;;4983166;28;20477;-81
2021/05/06 15:30:09;;;;;;;4.22;1.30;;;20.90;43.80;;;;;;4964541;28;20482;-82
2021/05/06 15:32:34;;;;;;;2.15;1.23;;;20.90;44.50;;;;;;4969789;28;20098;-81
2021/05/06 15:35:01;;;;;;;2.08;1.30;;;20.20;44.50;;;;;;4966261;28;20112;-81
2021/05/06 15:37:27;;;;;;;3.30;1.45;;;19.70;42.10;;;;;;4982537;28;20054;-80
2021/05/06 15:39:52;;;;;;;2.45;1.10;;;19.40;44.20;;;;;;4987439;28;20049;-81
2021/05/06 15:42:18;;;;;;;2.58;1.70;;;19.70;44.50;;;;;;4993547;28;20482;-80
2021/05/06 15:44:43;;;;;;;1.65;1.15;;;18.50;44.60;;;;;;4980975;28;20058;-79
2021/05/06 15:47:09;;;;;;;2.17;1.15;;;17.90;45.40;;;;;;4995868;28;20057;-80
2021/05/06 15:49:37;;;;;;;4.57;1.60;;;17.30;45.60;;;;;;4992409;28;20042;-80
2021/05/06 15:52:03;;;;;;;1.90;1.40;;;17.30;47.00;;;;;;4978172;28;20044;-81
2021/05/06 15:54:29;;;;;;;2.38;1.98;;;17.70;47.10;;;;;;4982247;28;20029;-80
2021/05/06 15:56:55;;;;;;;4.03;1.92;;;18.10;46.50;;;;;;4966430;28;20057;-80
2021/05/06 15:59:21;;;;;;;3.05;2.20;;;18.10;46.70;;;;;;4975851;28;20442;-80
2021/05/06 16:01:46;;;;;;;5.60;2.53;;;18.10;47.50;;;;;;4964573;28;20037;-80
2021/05/06 16:04:14;;;;;;;3.25;2.15;;;17.80;48.30;;;;;;4993598;28;20463;-81
2021/05/06 16:06:39;;;;;;;3.03;2.30;;;17.50;48.20;;;;;;4981715;28;20042;-80
2021/05/06 16:09:05;;;;;;;4.68;1.90;;;17.10;47.00;;;;;;4974318;28;20042;-80